createdAt,value
2023-05-07T00:00:22.242Z,96624.64
2023-05-07T00:03:14.585Z,96622.27
2023-05-07T00:05:44.944Z,96621.52
2023-05-07T00:08:15.288Z,96620.49
2023-05-07T00:10:47.098Z,96613.80
2023-05-07T00:13:17.660Z,96620.96
2023-05-07T00:15:48.780Z,96625.70
2023-05-07T00:18:21.702Z,96621.75
2023-05-07T00:20:51.990Z,96621.30
2023-05-07T00:23:22.274Z,96613.65
2023-05-07T00:25:52.492Z,96618.57
2023-05-07T00:28:22.600Z,96626.71
2023-05-07T00:30:53.054Z,96626.23
2023-05-07T00:33:23.556Z,96610.76
2023-05-07T00:35:54.936Z,96609.98
2023-05-07T00:38:25.215Z,96607.48
2023-05-07T00:40:55.395Z,96609.80
2023-05-07T00:43:25.589Z,96609.57
2023-05-07T00:45:56.336Z,96607.13
2023-05-07T00:48:27.708Z,96601.08
2023-05-07T00:50:57.947Z,96604.55
2023-05-07T00:53:28.310Z,96611.83
2023-05-07T00:55:58.756Z,96614.79
2023-05-07T00:58:29.470Z,96619.26
2023-05-07T01:01:00.293Z,96618.83
2023-05-07T01:03:30.712Z,96612.34
2023-05-07T01:06:01.977Z,96615.89
2023-05-07T01:08:33.414Z,96616.91
2023-05-07T01:11:04.631Z,96622.42
2023-05-07T01:13:35.351Z,96622.85
2023-05-07T01:16:07.286Z,96620.14
2023-05-07T01:18:37.556Z,96617.06
2023-05-07T01:21:08.198Z,96619.00
2023-05-07T01:23:38.689Z,96617.50
2023-05-07T01:26:08.913Z,96620.86
2023-05-07T01:28:39.362Z,96629.12
2023-05-07T01:31:10.854Z,96622.96
2023-05-07T01:33:42.378Z,96618.89
2023-05-07T01:36:14.391Z,96621.98
2023-05-07T01:38:45.700Z,96626.10
2023-05-07T01:41:16.092Z,96631.80
2023-05-07T01:43:46.575Z,96625.75
2023-05-07T01:46:17.309Z,96625.23
2023-05-07T01:48:48.089Z,96623.89
2023-05-07T01:51:18.389Z,96625.70
2023-05-07T01:53:51.509Z,96634.04
2023-05-07T01:56:22.247Z,96638.97
2023-05-07T01:58:53.206Z,96637.45
2023-05-07T02:01:23.487Z,96634.48
2023-05-07T02:03:54.577Z,96629.77
2023-05-07T02:06:25.493Z,96628.45
2023-05-07T02:08:55.851Z,96632.11
2023-05-07T02:11:26.545Z,96633.77
2023-05-07T02:13:57.848Z,96638.86
2023-05-07T02:16:28.265Z,96640.41
2023-05-07T02:18:58.890Z,96636.88
2023-05-07T02:21:31.019Z,96634.27
2023-05-07T02:24:01.732Z,96646.48
2023-05-07T02:26:32.348Z,96649.21
2023-05-07T02:29:02.546Z,96640.97
2023-05-07T02:31:34.768Z,96642.57
2023-05-07T02:34:05.270Z,96641.90
2023-05-07T02:36:35.586Z,96642.35
2023-05-07T02:39:06.140Z,96642.89
2023-05-07T02:41:36.408Z,96625.81
2023-05-07T02:44:06.984Z,96627.66
2023-05-07T02:46:37.345Z,96626.55
2023-05-07T02:49:08.248Z,96615.77
2023-05-07T02:51:38.771Z,96603.55
2023-05-07T02:54:09.072Z,96595.83
2023-05-07T02:56:40.110Z,96593.70
2023-05-07T02:59:10.596Z,96597.11
2023-05-07T03:01:42.844Z,96597.29
2023-05-07T03:04:14.015Z,96601.33
2023-05-07T03:06:44.283Z,96610.42
2023-05-07T03:09:14.760Z,96613.88
2023-05-07T03:11:45.393Z,96610.33
2023-05-07T03:14:16.010Z,96601.09
2023-05-07T03:16:46.994Z,96598.20
2023-05-07T03:19:17.164Z,96596.51
2023-05-07T03:21:47.538Z,96607.84
2023-05-07T03:24:17.691Z,96613.98
2023-05-07T03:26:48.087Z,96607.05
2023-05-07T03:29:18.690Z,96603.80
2023-05-07T03:31:49.086Z,96606.94
2023-05-07T03:34:22.701Z,96599.92
2023-05-07T03:36:52.834Z,96596.87
2023-05-07T03:39:23.672Z,96597.31
2023-05-07T03:41:56.211Z,96590.02
2023-05-07T03:44:27.148Z,96585.79
2023-05-07T03:46:57.929Z,96594.17
2023-05-07T03:49:28.171Z,96590.36
2023-05-07T03:51:58.407Z,96577.42
2023-05-07T03:54:28.715Z,96567.77
2023-05-07T03:56:59.810Z,96570.85
2023-05-07T03:59:30.459Z,96575.09
2023-05-07T04:02:02.267Z,96583.81
2023-05-07T04:04:34.157Z,96586.34
2023-05-07T04:07:05.206Z,96588.02
2023-05-07T04:09:35.727Z,96598.30
2023-05-07T04:12:07.258Z,96597.74
2023-05-07T04:14:37.851Z,96602.67
2023-05-07T04:17:10.758Z,96602.29
2023-05-07T04:19:46.145Z,96597.55
2023-05-07T04:22:16.512Z,96593.20
2023-05-07T04:24:46.874Z,96589.61
2023-05-07T04:27:17.628Z,96584.35
2023-05-07T04:29:48.439Z,96576.18
2023-05-07T04:32:19.816Z,96571.59
2023-05-07T04:34:51.099Z,96576.05
2023-05-07T04:37:22.003Z,96572.48
2023-05-07T04:39:53.157Z,96570.72
2023-05-07T04:42:23.967Z,96573.39
2023-05-07T04:44:56.791Z,96569.51
2023-05-07T04:47:27.831Z,96571.82
2023-05-07T04:49:58.909Z,96583.67
2023-05-07T04:52:30.387Z,96589.32
2023-05-07T04:55:03.187Z,96591.24
2023-05-07T04:57:34.242Z,96580.98
2023-05-07T05:00:06.683Z,96574.40
2023-05-07T05:02:37.656Z,96575.52
2023-05-07T05:05:09.848Z,96571.85
2023-05-07T05:07:41.149Z,96568.51
2023-05-07T05:10:13.168Z,96573.66
2023-05-07T05:12:45.125Z,96573.11
2023-05-07T05:15:16.072Z,96580.30
2023-05-07T05:17:46.568Z,96581.52
2023-05-07T05:20:17.058Z,96579.70
2023-05-07T05:22:47.681Z,96572.61
2023-05-07T05:25:18.445Z,96577.68
2023-05-07T05:27:49.138Z,96589.92
2023-05-07T05:30:21.229Z,96598.05
2023-05-07T05:32:52.993Z,96595.58
2023-05-07T05:35:23.462Z,96600.86
2023-05-07T05:37:54.074Z,96595.81
2023-05-07T05:40:24.595Z,96588.34
2023-05-07T05:42:54.920Z,96581.28
2023-05-07T05:45:25.247Z,96585.53
2023-05-07T05:47:57.445Z,96596.50
2023-05-07T05:50:27.996Z,96597.36
2023-05-07T05:53:00.415Z,96601.08
2023-05-07T05:55:30.821Z,96605.55
2023-05-07T05:58:01.026Z,96606.46
2023-05-07T06:00:32.037Z,96609.11
2023-05-07T06:03:02.358Z,96620.36
2023-05-07T06:05:32.663Z,96628.64
2023-05-07T06:08:03.309Z,96626.71
2023-05-07T06:10:33.764Z,96622.80
2023-05-07T06:13:04.215Z,96630.60
2023-05-07T06:15:35.061Z,96628.45
2023-05-07T06:18:06.091Z,96622.98
2023-05-07T06:20:36.500Z,96625.66
2023-05-07T06:23:07.419Z,96630.42
2023-05-07T06:25:38.081Z,96627.29
2023-05-07T06:28:12.137Z,96616.76
2023-05-07T06:30:42.634Z,96609.98
2023-05-07T06:33:14.060Z,96610.64
2023-05-07T06:35:44.335Z,96606.73
2023-05-07T06:38:14.597Z,96603.39
2023-05-07T06:40:45.042Z,96618.75
2023-05-07T06:43:15.290Z,96626.29
2023-05-07T06:45:45.630Z,96623.98
2023-05-07T06:48:16.011Z,96626.75
2023-05-07T06:50:46.401Z,96626.16
2023-05-07T06:53:19.367Z,96611.02
2023-05-07T06:55:51.078Z,96601.52
2023-05-07T06:58:21.506Z,96607.08
2023-05-07T07:00:51.939Z,96605.91
2023-05-07T07:03:23.159Z,96603.29
2023-05-07T07:05:55.168Z,96607.22
2023-05-07T07:08:27.798Z,96603.70
2023-05-07T07:10:58.399Z,96607.81
2023-05-07T07:13:28.800Z,96605.98
2023-05-07T07:15:59.263Z,96604.65
2023-05-07T07:18:29.483Z,96616.91
2023-05-07T07:20:59.758Z,96607.23
2023-05-07T07:23:29.977Z,96577.52
2023-05-07T07:26:00.715Z,96569.10
2023-05-07T07:28:30.861Z,96572.59
2023-05-07T07:31:01.428Z,96579.91
2023-05-07T07:33:31.874Z,96580.39
2023-05-07T07:36:02.368Z,96587.61
2023-05-07T07:38:32.549Z,96587.98
2023-05-07T07:41:03.060Z,96573.38
2023-05-07T07:43:33.261Z,96577.86
2023-05-07T07:46:03.484Z,96587.73
2023-05-07T07:48:33.920Z,96594.73
2023-05-07T07:51:04.844Z,96608.64
2023-05-07T07:53:35.370Z,96609.38
2023-05-07T07:56:06.260Z,96607.88
2023-05-07T07:58:38.579Z,96609.55
2023-05-07T08:01:08.906Z,96611.19
2023-05-07T08:03:39.508Z,96606.20
2023-05-07T08:06:10.070Z,96613.65
2023-05-07T08:08:40.401Z,96620.57
2023-05-07T08:11:10.670Z,96618.24
2023-05-07T08:13:41.183Z,96605.66
2023-05-07T08:16:11.903Z,96606.48
2023-05-07T08:18:42.683Z,96604.88
2023-05-07T08:21:13.753Z,96605.87
2023-05-07T08:23:44.036Z,96599.30
2023-05-07T08:26:14.560Z,96589.76
2023-05-07T08:28:44.923Z,96577.86
2023-05-07T08:31:15.544Z,96566.12
2023-05-07T08:33:46.060Z,96547.58
2023-05-07T08:36:16.206Z,96548.46
2023-05-07T08:38:46.601Z,96555.93
2023-05-07T08:41:16.988Z,96555.78
2023-05-07T08:43:49.578Z,96551.48
2023-05-07T08:46:21.918Z,96538.36
2023-05-07T08:48:52.668Z,96512.21
2023-05-07T08:51:23.615Z,96514.80
2023-05-07T08:53:54.626Z,96520.67
2023-05-07T08:56:24.992Z,96522.42
2023-05-07T08:58:57.261Z,96525.73
2023-05-07T09:01:27.805Z,96523.40
2023-05-07T09:03:58.965Z,96534.98
2023-05-07T09:06:29.497Z,96559.65
2023-05-07T09:09:01.869Z,96569.75
2023-05-07T09:11:33.027Z,96559.27
2023-05-07T09:14:03.457Z,96544.83
2023-05-07T09:16:33.845Z,96537.04
2023-05-07T09:19:04.185Z,96540.63
2023-05-07T09:21:34.840Z,96532.88
2023-05-07T09:24:05.467Z,96533.96
2023-05-07T09:26:35.743Z,96538.15
2023-05-07T09:29:05.956Z,96533.30
2023-05-07T09:31:39.310Z,96538.10
2023-05-07T09:34:09.752Z,96548.04
2023-05-07T09:36:40.116Z,96554.60
2023-05-07T09:39:10.892Z,96550.35
2023-05-07T09:41:47.332Z,96554.39
2023-05-07T09:44:16.620Z,96559.40
2023-05-07T09:46:46.826Z,96550.56
2023-05-07T09:49:24.404Z,96542.91
2023-05-07T09:51:55.960Z,96533.86
2023-05-07T09:54:26.577Z,96528.65
2023-05-07T09:56:57.707Z,96538.77
2023-05-07T09:59:30.160Z,96548.33
2023-05-07T10:02:04.159Z,96551.46
2023-05-07T10:04:35.342Z,96552.46
2023-05-07T10:07:07.168Z,96546.29
2023-05-07T10:09:39.560Z,96546.77
2023-05-07T10:12:10.105Z,96545.73
2023-05-07T10:14:40.321Z,96548.11
2023-05-07T10:17:12.581Z,96546.50
2023-05-07T10:19:43.222Z,96551.48
2023-05-07T10:22:14.422Z,96550.84
2023-05-07T10:24:45.640Z,96545.55
2023-05-07T10:27:16.883Z,96544.48
2023-05-07T10:29:54.732Z,96540.55
2023-05-07T10:32:38.775Z,96537.14
2023-05-07T10:35:12.502Z,96526.19
2023-05-07T10:37:43.153Z,96516.77
2023-05-07T10:40:15.194Z,96512.03
2023-05-07T10:43:00.238Z,96515.45
2023-05-07T10:45:31.394Z,96519.35
2023-05-07T10:48:27.852Z,96514.84
2023-05-07T10:51:26.377Z,96514.98
2023-05-07T10:54:28.176Z,96514.10
2023-05-07T10:56:58.916Z,96506.92
2023-05-07T10:59:43.288Z,96506.61
2023-05-07T11:02:16.112Z,96495.48
2023-05-07T11:04:46.539Z,96487.73
2023-05-07T11:07:33.153Z,96476.98
2023-05-07T11:10:05.635Z,96467.56
2023-05-07T11:12:53.740Z,96471.55
2023-05-07T11:15:42.642Z,96474.79
2023-05-07T11:18:14.706Z,96468.45
2023-05-07T11:20:55.511Z,96465.88
2023-05-07T11:24:01.906Z,96468.56
2023-05-07T11:26:33.333Z,96468.61
2023-05-07T11:29:03.834Z,96463.83
2023-05-07T11:31:34.231Z,96458.01
2023-05-07T11:34:05.131Z,96444.56
2023-05-07T11:36:35.945Z,96431.38
2023-05-07T11:39:08.739Z,96431.81
2023-05-07T11:41:40.463Z,96423.98
2023-05-07T11:44:10.685Z,96424.55
2023-05-07T11:46:45.891Z,96425.17
2023-05-07T11:49:16.729Z,96431.84
2023-05-07T11:51:47.522Z,96441.02
2023-05-07T11:54:19.470Z,96446.00
2023-05-07T11:56:49.941Z,96450.38
2023-05-07T11:59:23.303Z,96450.55
2023-05-07T12:01:53.585Z,96455.16
2023-05-07T12:04:24.291Z,96458.48
2023-05-07T12:06:59.902Z,96451.80
2023-05-07T12:09:32.934Z,96445.96
2023-05-07T12:12:06.901Z,96440.30
2023-05-07T12:14:40.695Z,96438.05
2023-05-07T12:17:11.965Z,96438.08
2023-05-07T12:19:43.678Z,96438.94
2023-05-07T12:22:14.642Z,96438.06
2023-05-07T12:24:49.207Z,96427.58
2023-05-07T12:27:19.955Z,96420.89
2023-05-07T12:29:50.937Z,96413.48
2023-05-07T12:32:23.159Z,96413.46
2023-05-07T12:34:54.480Z,96415.87
2023-05-07T12:37:29.002Z,96398.73
2023-05-07T12:40:09.596Z,96397.09
2023-05-07T12:42:41.232Z,96394.20
2023-05-07T12:45:13.909Z,96399.61
2023-05-07T12:47:47.490Z,96393.11
2023-05-07T12:50:18.282Z,96387.77
2023-05-07T12:52:49.997Z,96387.20
2023-05-07T12:55:20.670Z,96382.53
2023-05-07T12:57:52.578Z,96382.05
2023-05-07T13:00:36.733Z,96390.54
2023-05-07T13:03:07.189Z,96386.09
2023-05-07T13:05:37.729Z,96388.02
2023-05-07T13:08:11.399Z,96386.42
2023-05-07T13:10:42.186Z,96388.70
2023-05-07T13:13:12.509Z,96372.76
2023-05-07T13:15:42.831Z,96368.30
2023-05-07T13:18:13.484Z,96361.98
2023-05-07T13:20:44.371Z,96362.30
2023-05-07T13:23:14.651Z,96354.63
2023-05-07T13:25:45.432Z,96350.11
2023-05-07T13:28:15.985Z,96344.52
2023-05-07T13:30:46.439Z,96341.20
2023-05-07T13:33:16.961Z,96328.19
2023-05-07T13:35:47.417Z,96331.70
2023-05-07T13:38:18.144Z,96323.73
2023-05-07T13:40:48.588Z,96329.70
2023-05-07T13:43:19.554Z,96323.48
2023-05-07T13:45:50.248Z,96326.65
2023-05-07T13:48:20.667Z,96320.51
2023-05-07T13:50:51.987Z,96318.19
2023-05-07T13:53:24.972Z,96318.50
2023-05-07T13:55:55.263Z,96321.33
2023-05-07T13:58:25.585Z,96322.75
2023-05-07T14:00:55.806Z,96326.98
2023-05-07T14:03:26.146Z,96325.41
2023-05-07T14:05:58.506Z,96324.67
2023-05-07T14:08:31.661Z,96332.06
2023-05-07T14:11:02.518Z,96327.48
2023-05-07T14:13:33.026Z,96320.14
2023-05-07T14:16:03.492Z,96312.33
2023-05-07T14:18:35.187Z,96303.29
2023-05-07T14:21:06.783Z,96294.63
2023-05-07T14:23:37.086Z,96290.11
2023-05-07T14:26:07.922Z,96285.72
2023-05-07T14:28:40.119Z,96283.81
2023-05-07T14:31:10.700Z,96287.02
2023-05-07T14:33:42.170Z,96289.04
2023-05-07T14:36:12.666Z,96286.48
2023-05-07T14:38:42.894Z,96279.76
2023-05-07T14:41:15.747Z,96273.12
2023-05-07T14:43:50.644Z,96268.58
2023-05-07T14:46:22.049Z,96257.15
2023-05-07T14:48:52.832Z,96258.29
2023-05-07T14:51:24.247Z,96268.67
2023-05-07T14:53:54.927Z,96264.30
2023-05-07T14:56:25.310Z,96264.23
2023-05-07T14:58:55.637Z,96263.70
2023-05-07T15:01:27.020Z,96263.88
2023-05-07T15:03:57.962Z,96263.11
2023-05-07T15:06:28.442Z,96257.52
2023-05-07T15:08:58.683Z,96256.39
2023-05-07T15:11:29.035Z,96251.10
2023-05-07T15:14:01.810Z,96246.31
2023-05-07T15:16:32.540Z,96241.03
2023-05-07T15:19:03.653Z,96239.02
2023-05-07T15:21:35.372Z,96238.17
2023-05-07T15:24:06.191Z,96233.92
2023-05-07T15:26:36.843Z,96246.05
2023-05-07T15:29:10.736Z,96249.98
2023-05-07T15:31:41.255Z,96247.17
2023-05-07T15:34:11.870Z,96240.71
2023-05-07T15:36:42.206Z,96235.65
2023-05-07T15:39:13.412Z,96231.69
2023-05-07T15:41:44.192Z,96227.85
2023-05-07T15:44:14.873Z,96233.71
2023-05-07T15:46:45.053Z,96238.45
2023-05-07T15:49:16.011Z,96247.60
2023-05-07T15:51:46.208Z,96254.14
2023-05-07T15:54:17.962Z,96258.42
2023-05-07T15:59:36.895Z,96270.18
2023-05-07T16:02:07.875Z,96266.19
2023-05-07T16:04:38.573Z,96269.52
2023-05-07T16:07:11.068Z,96268.48
2023-05-07T16:09:42.974Z,96266.00
2023-05-07T16:12:13.328Z,96260.02
2023-05-07T16:14:43.793Z,96259.82
2023-05-07T16:17:14.050Z,96261.17
2023-05-07T16:19:44.393Z,96258.73
2023-05-07T16:22:16.247Z,96266.64
2023-05-07T16:24:46.685Z,96265.49
2023-05-07T16:27:17.016Z,96261.03
2023-05-07T16:29:47.483Z,96260.04
2023-05-07T16:32:17.784Z,96251.91
2023-05-07T16:34:47.975Z,96249.04
2023-05-07T16:37:18.521Z,96247.29
2023-05-07T16:39:49.809Z,96252.84
2023-05-07T16:42:20.315Z,96260.23
2023-05-07T16:44:50.668Z,96264.86
2023-05-07T16:47:21.769Z,96269.82
2023-05-07T16:49:52.662Z,96264.17
2023-05-07T16:52:24.003Z,96259.23
2023-05-07T16:54:58.084Z,96260.34
2023-05-07T16:57:28.700Z,96264.02
2023-05-07T17:00:07.295Z,96268.77
2023-05-07T17:02:37.940Z,96267.85
2023-05-07T17:05:10.240Z,96265.29
2023-05-07T17:07:40.727Z,96264.67
2023-05-07T17:10:12.389Z,96273.90
2023-05-07T17:12:44.064Z,96282.39
2023-05-07T17:15:14.851Z,96283.41
2023-05-07T17:17:45.845Z,96286.58
2023-05-07T17:20:17.560Z,96286.74
2023-05-07T17:22:47.855Z,96295.44
2023-05-07T17:25:18.695Z,96297.72
2023-05-07T17:27:49.174Z,96301.75
2023-05-07T17:30:19.772Z,96317.04
2023-05-07T17:32:50.238Z,96326.68
2023-05-07T17:35:20.707Z,96337.48
2023-05-07T17:37:52.310Z,96346.58
2023-05-07T17:40:23.256Z,96346.61
2023-05-07T17:42:55.697Z,96346.25
2023-05-07T17:45:27.123Z,96340.79
2023-05-07T17:47:57.681Z,96343.31
2023-05-07T17:50:28.027Z,96341.62
2023-05-07T17:52:58.524Z,96333.70
2023-05-07T17:55:33.576Z,96324.19
2023-05-07T17:58:03.990Z,96309.38
2023-05-07T18:00:34.356Z,96305.27
2023-05-07T18:03:05.229Z,96306.08
2023-05-07T18:05:39.275Z,96301.48
2023-05-07T18:08:09.912Z,96304.38
2023-05-07T18:10:40.442Z,96310.83
2023-05-07T18:13:10.993Z,96306.77
2023-05-07T18:15:41.841Z,96303.55
2023-05-07T18:18:15.705Z,96300.45
2023-05-07T18:20:51.116Z,96294.98
2023-05-07T18:23:21.450Z,96287.35
2023-05-07T18:25:51.806Z,96301.73
2023-05-07T18:28:22.338Z,96308.14
2023-05-07T18:30:53.056Z,96310.70
2023-05-07T18:33:23.523Z,96310.70
2023-05-07T18:35:53.971Z,96292.48
2023-05-07T18:38:24.539Z,96265.86
2023-05-07T18:40:55.088Z,96265.95
2023-05-07T18:43:25.706Z,96295.01
2023-05-07T18:45:56.171Z,96307.50
2023-05-07T18:48:26.929Z,96318.77
2023-05-07T18:50:57.241Z,96327.76
2023-05-07T18:53:29.873Z,96336.07
2023-05-07T18:56:00.622Z,96346.58
2023-05-07T18:58:32.445Z,96343.39
2023-05-07T19:01:07.682Z,96334.27
2023-05-07T19:03:38.063Z,96332.98
2023-05-07T19:06:08.743Z,96332.05
2023-05-07T19:08:41.837Z,96334.14
2023-05-07T19:11:12.064Z,96344.29
2023-05-07T19:13:42.678Z,96352.45
2023-05-07T19:16:13.655Z,96354.04
2023-05-07T19:18:44.247Z,96352.20
2023-05-07T19:21:17.300Z,96349.22
2023-05-07T19:23:51.106Z,96348.90
2023-05-07T19:26:31.014Z,96349.90
2023-05-07T19:29:16.447Z,96354.56
2023-05-07T19:31:47.827Z,96356.39
2023-05-07T19:34:18.207Z,96362.90
2023-05-07T19:36:53.597Z,96366.23
2023-05-07T19:39:25.592Z,96366.95
2023-05-07T19:41:56.602Z,96370.21
2023-05-07T19:44:27.093Z,96367.76
2023-05-07T19:46:58.732Z,96361.48
2023-05-07T19:49:32.075Z,96359.73
2023-05-07T19:52:02.681Z,96357.19
2023-05-07T19:54:34.356Z,96366.66
2023-05-07T19:57:08.864Z,96373.62
2023-05-07T19:59:40.043Z,96376.58
2023-05-07T20:02:12.438Z,96375.48
2023-05-07T20:04:45.398Z,96381.95
2023-05-07T20:07:15.828Z,96380.63
2023-05-07T20:09:46.808Z,96378.53
2023-05-07T20:12:17.815Z,96376.19
2023-05-07T20:14:48.397Z,96370.73
2023-05-07T20:17:19.473Z,96369.98
2023-05-07T20:19:49.901Z,96364.89
2023-05-07T20:22:20.538Z,96361.52
2023-05-07T20:24:51.183Z,96356.85
2023-05-07T20:27:25.599Z,96358.21
2023-05-07T20:29:56.065Z,96349.02
2023-05-07T20:32:26.580Z,96351.19
2023-05-07T20:34:56.885Z,96350.66
2023-05-07T20:37:29.120Z,96352.36
2023-05-07T20:39:59.573Z,96349.17
2023-05-07T20:42:29.938Z,96347.39
2023-05-07T20:45:02.165Z,96347.96
2023-05-07T20:47:34.475Z,96345.75
2023-05-07T20:50:05.142Z,96349.81
2023-05-07T20:52:35.465Z,96351.42
2023-05-07T20:55:09.370Z,96349.61
2023-05-07T20:57:42.526Z,96351.21
2023-05-07T21:00:15.518Z,96343.10
2023-05-07T21:02:46.704Z,96340.25
2023-05-07T21:05:17.046Z,96339.69
2023-05-07T21:07:47.380Z,96333.16
2023-05-07T21:10:17.677Z,96336.39
2023-05-07T21:12:48.317Z,96336.15
2023-05-07T21:15:19.610Z,96338.31
2023-05-07T21:17:50.099Z,96341.66
2023-05-07T21:20:21.231Z,96345.67
2023-05-07T21:22:51.497Z,96344.25
2023-05-07T21:25:22.670Z,96343.17
2023-05-07T21:27:53.655Z,96344.34
2023-05-07T21:30:24.479Z,96344.95
2023-05-07T21:32:55.999Z,96334.73
2023-05-07T21:35:28.717Z,96332.88
2023-05-07T21:38:00.473Z,96336.46
2023-05-07T21:40:30.716Z,96330.95
2023-05-07T21:43:01.182Z,96339.60
2023-05-07T21:45:31.582Z,96338.88
2023-05-07T21:48:01.863Z,96334.98
2023-05-07T21:50:32.143Z,96338.67
2023-05-07T21:53:02.288Z,96335.19
2023-05-07T21:55:32.850Z,96338.30
2023-05-07T21:58:05.836Z,96337.53
2023-05-07T22:00:37.256Z,96336.18
2023-05-07T22:03:07.553Z,96335.31
2023-05-07T22:05:38.039Z,96332.39
2023-05-07T22:08:08.229Z,96333.50
2023-05-07T22:10:38.995Z,96333.73
2023-05-07T22:13:10.023Z,96335.01
2023-05-07T22:15:53.132Z,96336.51
2023-05-07T22:18:26.891Z,96329.63
2023-05-07T22:20:57.204Z,96322.23
2023-05-07T22:23:28.159Z,96317.92
2023-05-07T22:25:58.756Z,96314.19
2023-05-07T22:28:29.439Z,96316.00
2023-05-07T22:30:59.752Z,96320.32
2023-05-07T22:33:30.700Z,96315.27
2023-05-07T22:36:01.021Z,96315.61
2023-05-07T22:38:31.656Z,96322.58
2023-05-07T22:41:02.033Z,96331.23
2023-05-07T22:43:32.490Z,96333.91
2023-05-07T22:46:03.798Z,96334.50
2023-05-07T22:48:34.324Z,96331.33
2023-05-07T22:51:04.786Z,96330.78
2023-05-07T22:53:35.094Z,96336.56
2023-05-07T22:56:08.054Z,96342.65
2023-05-07T22:58:38.384Z,96350.38
2023-05-07T23:01:14.786Z,96364.49
2023-05-07T23:03:45.426Z,96376.30
2023-05-07T23:06:15.703Z,96374.89
2023-05-07T23:08:45.912Z,96369.74
2023-05-07T23:11:16.093Z,96354.25
2023-05-07T23:13:46.812Z,96340.44
2023-05-07T23:16:17.236Z,96325.86
2023-05-07T23:18:48.151Z,96304.29
2023-05-07T23:21:18.354Z,96309.04
2023-05-07T23:23:49.565Z,96340.75
2023-05-07T23:26:19.892Z,96361.02
2023-05-07T23:28:50.200Z,96364.30
2023-05-07T23:31:20.779Z,96362.38
2023-05-07T23:33:51.502Z,96366.76
2023-05-07T23:36:21.752Z,96374.29
2023-05-07T23:38:51.924Z,96372.48
2023-05-07T23:41:22.511Z,96361.52
2023-05-07T23:43:52.752Z,96351.65
2023-05-07T23:46:24.369Z,96344.67
2023-05-07T23:48:54.676Z,96349.27
2023-05-07T23:51:25.102Z,96358.55
2023-05-07T23:53:55.854Z,96370.31
2023-05-07T23:56:26.157Z,96369.55
2023-05-07T23:58:56.471Z,96367.95
